sensor_id;sensor_type;location;lat;lon;timestamp;P1;durP1;ratioP1;P2;durP2;ratioP2
12721;SDS011;6425;50.316;8.114;2022-09-01T00:03:23;8.53;;;7.83;;
12721;SDS011;6425;50.316;8.114;2022-09-01T00:08:25;7.43;;;6.83;;
12721;SDS011;6425;50.316;8.114;2022-09-01T00:13:25;6.67;;;6.07;;
12721;SDS011;6425;50.316;8.114;2022-09-01T00:18:26;7.07;;;6.37;;
12721;SDS011;6425;50.316;8.114;2022-09-01T00:23:28;6.37;;;5.87;;
12721;SDS011;6425;50.316;8.114;2022-09-01T00:28:28;7.33;;;6.57;;
12721;SDS011;6425;50.316;8.114;2022-09-01T00:33:31;6.43;;;5.83;;
12721;SDS011;6425;50.316;8.114;2022-09-01T00:38:33;6.27;;;5.57;;
12721;SDS011;6425;50.316;8.114;2022-09-01T00:43:36;8.33;;;6.60;;
12721;SDS011;6425;50.316;8.114;2022-09-01T00:48:39;7.57;;;6.43;;
12721;SDS011;6425;50.316;8.114;2022-09-01T00:53:44;6.90;;;6.30;;
12721;SDS011;6425;50.316;8.114;2022-09-01T00:58:45;6.67;;;6.17;;
12721;SDS011;6425;50.316;8.114;2022-09-01T01:03:45;6.57;;;5.73;;
12721;SDS011;6425;50.316;8.114;2022-09-01T01:08:48;6.63;;;6.03;;
12721;SDS011;6425;50.316;8.114;2022-09-01T01:13:50;7.60;;;6.90;;
12721;SDS011;6425;50.316;8.114;2022-09-01T01:18:53;7.43;;;6.63;;
12721;SDS011;6425;50.316;8.114;2022-09-01T01:23:56;7.37;;;6.60;;
12721;SDS011;6425;50.316;8.114;2022-09-01T01:29:02;8.50;;;6.77;;
12721;SDS011;6425;50.316;8.114;2022-09-01T01:34:04;7.37;;;6.70;;
12721;SDS011;6425;50.316;8.114;2022-09-01T01:39:05;6.47;;;5.97;;
12721;SDS011;6425;50.316;8.114;2022-09-01T01:44:11;6.10;;;5.57;;
12721;SDS011;6425;50.316;8.114;2022-09-01T01:49:14;6.73;;;6.10;;
12721;SDS011;6425;50.316;8.114;2022-09-01T01:54:15;6.20;;;5.70;;
12721;SDS011;6425;50.316;8.114;2022-09-01T01:59:18;5.87;;;5.23;;
12721;SDS011;6425;50.316;8.114;2022-09-01T02:04:19;7.67;;;5.60;;
12721;SDS011;6425;50.316;8.114;2022-09-01T02:09:20;7.40;;;5.93;;
12721;SDS011;6425;50.316;8.114;2022-09-01T02:14:22;5.87;;;5.30;;
12721;SDS011;6425;50.316;8.114;2022-09-01T02:19:24;5.67;;;5.17;;
12721;SDS011;6425;50.316;8.114;2022-09-01T02:24:25;6.03;;;5.60;;
12721;SDS011;6425;50.316;8.114;2022-09-01T02:29:27;6.50;;;5.90;;
12721;SDS011;6425;50.316;8.114;2022-09-01T02:34:28;6.40;;;5.80;;
12721;SDS011;6425;50.316;8.114;2022-09-01T02:39:29;7.60;;;6.03;;
12721;SDS011;6425;50.316;8.114;2022-09-01T02:44:31;6.67;;;5.27;;
12721;SDS011;6425;50.316;8.114;2022-09-01T02:49:33;6.23;;;5.63;;
12721;SDS011;6425;50.316;8.114;2022-09-01T02:54:33;6.83;;;4.97;;
12721;SDS011;6425;50.316;8.114;2022-09-01T02:59:35;6.17;;;5.63;;
12721;SDS011;6425;50.316;8.114;2022-09-01T03:04:35;6.10;;;5.37;;
12721;SDS011;6425;50.316;8.114;2022-09-01T03:09:36;6.60;;;5.93;;
12721;SDS011;6425;50.316;8.114;2022-09-01T03:14:38;6.20;;;5.60;;
12721;SDS011;6425;50.316;8.114;2022-09-01T03:19:38;6.20;;;5.60;;
12721;SDS011;6425;50.316;8.114;2022-09-01T03:24:39;6.90;;;5.23;;
12721;SDS011;6425;50.316;8.114;2022-09-01T03:29:41;7.57;;;5.53;;
12721;SDS011;6425;50.316;8.114;2022-09-01T03:34:42;6.30;;;5.70;;
12721;SDS011;6425;50.316;8.114;2022-09-01T03:39:42;6.40;;;5.63;;
12721;SDS011;6425;50.316;8.114;2022-09-01T03:44:44;7.97;;;5.67;;
12721;SDS011;6425;50.316;8.114;2022-09-01T03:49:44;6.07;;;5.57;;
12721;SDS011;6425;50.316;8.114;2022-09-01T03:54:45;6.03;;;5.43;;
12721;SDS011;6425;50.316;8.114;2022-09-01T03:59:47;6.33;;;5.87;;
12721;SDS011;6425;50.316;8.114;2022-09-01T04:04:48;6.53;;;5.93;;
12721;SDS011;6425;50.316;8.114;2022-09-01T04:09:48;6.17;;;5.60;;
12721;SDS011;6425;50.316;8.114;2022-09-01T04:14:50;6.90;;;6.30;;
12721;SDS011;6425;50.316;8.114;2022-09-01T04:19:50;6.33;;;5.83;;
12721;SDS011;6425;50.316;8.114;2022-09-01T04:24:51;6.90;;;5.40;;
12721;SDS011;6425;50.316;8.114;2022-09-01T04:29:53;5.63;;;5.07;;
12721;SDS011;6425;50.316;8.114;2022-09-01T04:34:56;6.03;;;5.53;;
12721;SDS011;6425;50.316;8.114;2022-09-01T04:39:57;5.27;;;4.77;;
12721;SDS011;6425;50.316;8.114;2022-09-01T04:45:01;7.10;;;5.63;;
12721;SDS011;6425;50.316;8.114;2022-09-01T04:50:04;6.00;;;5.50;;
12721;SDS011;6425;50.316;8.114;2022-09-01T04:55:06;7.03;;;4.97;;
12721;SDS011;6425;50.316;8.114;2022-09-01T05:00:11;8.20;;;5.50;;
12721;SDS011;6425;50.316;8.114;2022-09-01T05:05:14;5.40;;;4.90;;
12721;SDS011;6425;50.316;8.114;2022-09-01T05:10:14;5.63;;;5.03;;
12721;SDS011;6425;50.316;8.114;2022-09-01T05:15:21;6.37;;;5.60;;
12721;SDS011;6425;50.316;8.114;2022-09-01T05:20:22;5.77;;;5.27;;
12721;SDS011;6425;50.316;8.114;2022-09-01T05:25:22;5.80;;;5.13;;
12721;SDS011;6425;50.316;8.114;2022-09-01T05:30:24;6.43;;;4.97;;
12721;SDS011;6425;50.316;8.114;2022-09-01T05:35:25;5.07;;;4.70;;
12721;SDS011;6425;50.316;8.114;2022-09-01T05:40:26;5.67;;;5.17;;
12721;SDS011;6425;50.316;8.114;2022-09-01T05:45:27;5.40;;;5.00;;
12721;SDS011;6425;50.316;8.114;2022-09-01T05:50:28;3.60;;;3.40;;
12721;SDS011;6425;50.316;8.114;2022-09-01T05:55:28;3.40;;;3.20;;
12721;SDS011;6425;50.316;8.114;2022-09-01T06:00:30;5.67;;;3.83;;
12721;SDS011;6425;50.316;8.114;2022-09-01T06:05:32;4.90;;;3.67;;
12721;SDS011;6425;50.316;8.114;2022-09-01T06:10:35;5.97;;;4.00;;
12721;SDS011;6425;50.316;8.114;2022-09-01T06:15:38;5.40;;;4.77;;
12721;SDS011;6425;50.316;8.114;2022-09-01T06:20:39;4.93;;;3.63;;
12721;SDS011;6425;50.316;8.114;2022-09-01T06:25:40;4.77;;;4.20;;
12721;SDS011;6425;50.316;8.114;2022-09-01T06:30:42;6.60;;;4.20;;
12721;SDS011;6425;50.316;8.114;2022-09-01T06:35:43;5.00;;;4.40;;
12721;SDS011;6425;50.316;8.114;2022-09-01T06:40:45;4.00;;;3.70;;
12721;SDS011;6425;50.316;8.114;2022-09-01T06:45:49;4.70;;;3.70;;
12721;SDS011;6425;50.316;8.114;2022-09-01T06:50:50;4.67;;;4.23;;
12721;SDS011;6425;50.316;8.114;2022-09-01T06:55:51;7.13;;;3.77;;
12721;SDS011;6425;50.316;8.114;2022-09-01T07:00:53;6.37;;;3.73;;
12721;SDS011;6425;50.316;8.114;2022-09-01T07:05:53;6.23;;;1.90;;
12721;SDS011;6425;50.316;8.114;2022-09-01T07:11:02;5.97;;;1.37;;
12721;SDS011;6425;50.316;8.114;2022-09-01T07:16:04;1.50;;;0.77;;
12721;SDS011;6425;50.316;8.114;2022-09-01T07:21:11;1.67;;;1.00;;
12721;SDS011;6425;50.316;8.114;2022-09-01T07:26:12;3.60;;;0.80;;
12721;SDS011;6425;50.316;8.114;2022-09-01T07:31:17;2.27;;;0.90;;
12721;SDS011;6425;50.316;8.114;2022-09-01T07:36:21;3.73;;;1.03;;
12721;SDS011;6425;50.316;8.114;2022-09-01T07:41:22;1.20;;;0.60;;
12721;SDS011;6425;50.316;8.114;2022-09-01T07:46:46;2.60;;;1.07;;
12721;SDS011;6425;50.316;8.114;2022-09-01T07:51:52;1.93;;;0.60;;
12721;SDS011;6425;50.316;8.114;2022-09-01T07:56:53;6.10;;;2.40;;
12721;SDS011;6425;50.316;8.114;2022-09-01T08:01:56;1.37;;;0.67;;
12721;SDS011;6425;50.316;8.114;2022-09-01T08:06:56;3.30;;;0.63;;
12721;SDS011;6425;50.316;8.114;2022-09-01T08:11:57;4.97;;;1.00;;
12721;SDS011;6425;50.316;8.114;2022-09-01T08:16:59;1.03;;;0.80;;
12721;SDS011;6425;50.316;8.114;2022-09-01T08:22:01;1.97;;;0.57;;
12721;SDS011;6425;50.316;8.114;2022-09-01T08:27:12;1.27;;;0.67;;
12721;SDS011;6425;50.316;8.114;2022-09-01T08:32:13;1.60;;;0.70;;
12721;SDS011;6425;50.316;8.114;2022-09-01T08:37:14;1.53;;;1.03;;
12721;SDS011;6425;50.316;8.114;2022-09-01T08:42:18;1.73;;;0.70;;
12721;SDS011;6425;50.316;8.114;2022-09-01T08:47:28;1.63;;;1.00;;
12721;SDS011;6425;50.316;8.114;2022-09-01T08:52:30;6.33;;;3.37;;
12721;SDS011;6425;50.316;8.114;2022-09-01T08:57:36;4.90;;;4.20;;
12721;SDS011;6425;50.316;8.114;2022-09-01T09:02:59;4.40;;;4.20;;
12721;SDS011;6425;50.316;8.114;2022-09-01T09:08:25;4.37;;;4.17;;
12721;SDS011;6425;50.316;8.114;2022-09-01T09:13:37;2.03;;;0.80;;
12721;SDS011;6425;50.316;8.114;2022-09-01T09:18:49;4.90;;;1.00;;
12721;SDS011;6425;50.316;8.114;2022-09-01T09:23:54;1.40;;;0.93;;
12721;SDS011;6425;50.316;8.114;2022-09-01T09:28:59;2.97;;;1.40;;
12721;SDS011;6425;50.316;8.114;2022-09-01T09:34:01;2.00;;;1.20;;
12721;SDS011;6425;50.316;8.114;2022-09-01T09:39:06;2.77;;;0.90;;
12721;SDS011;6425;50.316;8.114;2022-09-01T09:44:19;5.00;;;4.50;;
12721;SDS011;6425;50.316;8.114;2022-09-01T09:49:25;6.03;;;4.67;;
12721;SDS011;6425;50.316;8.114;2022-09-01T09:54:27;6.90;;;4.70;;
12721;SDS011;6425;50.316;8.114;2022-09-01T09:59:30;11.57;;;3.23;;
12721;SDS011;6425;50.316;8.114;2022-09-01T10:04:35;3.20;;;1.97;;
12721;SDS011;6425;50.316;8.114;2022-09-01T10:09:37;4.57;;;2.40;;
12721;SDS011;6425;50.316;8.114;2022-09-01T10:14:40;5.67;;;1.70;;
12721;SDS011;6425;50.316;8.114;2022-09-01T10:19:46;3.87;;;2.27;;
12721;SDS011;6425;50.316;8.114;2022-09-01T10:24:50;2.77;;;2.10;;
12721;SDS011;6425;50.316;8.114;2022-09-01T10:29:51;3.80;;;2.43;;
12721;SDS011;6425;50.316;8.114;2022-09-01T10:34:57;2.53;;;2.40;;
12721;SDS011;6425;50.316;8.114;2022-09-01T10:40:10;3.13;;;2.70;;
12721;SDS011;6425;50.316;8.114;2022-09-01T10:45:16;4.83;;;2.67;;
12721;SDS011;6425;50.316;8.114;2022-09-01T10:50:30;3.07;;;2.87;;
12721;SDS011;6425;50.316;8.114;2022-09-01T10:55:33;4.90;;;3.03;;
12721;SDS011;6425;50.316;8.114;2022-09-01T11:05:59;4.27;;;3.87;;
12721;SDS011;6425;50.316;8.114;2022-09-01T11:11:00;3.87;;;3.20;;
12721;SDS011;6425;50.316;8.114;2022-09-01T11:16:27;2.30;;;2.20;;
12721;SDS011;6425;50.316;8.114;2022-09-01T11:21:34;2.90;;;2.80;;
12721;SDS011;6425;50.316;8.114;2022-09-01T11:26:44;4.57;;;4.20;;
12721;SDS011;6425;50.316;8.114;2022-09-01T11:31:47;3.80;;;3.50;;
12721;SDS011;6425;50.316;8.114;2022-09-01T11:36:59;3.67;;;3.50;;
12721;SDS011;6425;50.316;8.114;2022-09-01T11:42:00;4.10;;;2.67;;
12721;SDS011;6425;50.316;8.114;2022-09-01T11:47:05;4.43;;;4.10;;
12721;SDS011;6425;50.316;8.114;2022-09-01T11:52:14;3.40;;;3.20;;
12721;SDS011;6425;50.316;8.114;2022-09-01T11:57:17;3.80;;;3.60;;
12721;SDS011;6425;50.316;8.114;2022-09-01T12:02:21;3.67;;;3.47;;
12721;SDS011;6425;50.316;8.114;2022-09-01T12:07:26;3.27;;;3.07;;
12721;SDS011;6425;50.316;8.114;2022-09-01T12:12:33;3.47;;;3.23;;
12721;SDS011;6425;50.316;8.114;2022-09-01T12:17:35;2.10;;;1.90;;
12721;SDS011;6425;50.316;8.114;2022-09-01T12:22:37;3.50;;;3.40;;
12721;SDS011;6425;50.316;8.114;2022-09-01T12:27:41;3.30;;;3.10;;
12721;SDS011;6425;50.316;8.114;2022-09-01T12:32:42;3.73;;;2.00;;
12721;SDS011;6425;50.316;8.114;2022-09-01T12:37:45;2.93;;;2.30;;
12721;SDS011;6425;50.316;8.114;2022-09-01T12:42:48;2.70;;;2.47;;
12721;SDS011;6425;50.316;8.114;2022-09-01T12:47:50;4.20;;;2.47;;
12721;SDS011;6425;50.316;8.114;2022-09-01T12:52:52;3.40;;;3.13;;
12721;SDS011;6425;50.316;8.114;2022-09-01T12:57:54;3.57;;;2.10;;
12721;SDS011;6425;50.316;8.114;2022-09-01T13:03:04;2.73;;;2.07;;
12721;SDS011;6425;50.316;8.114;2022-09-01T13:08:09;4.23;;;3.83;;
12721;SDS011;6425;50.316;8.114;2022-09-01T13:13:11;3.90;;;3.70;;
12721;SDS011;6425;50.316;8.114;2022-09-01T13:18:13;2.70;;;2.40;;
12721;SDS011;6425;50.316;8.114;2022-09-01T13:23:15;2.97;;;2.77;;
12721;SDS011;6425;50.316;8.114;2022-09-01T13:28:16;3.97;;;3.50;;
12721;SDS011;6425;50.316;8.114;2022-09-01T13:33:16;7.13;;;2.70;;
12721;SDS011;6425;50.316;8.114;2022-09-01T13:38:18;2.57;;;2.40;;
12721;SDS011;6425;50.316;8.114;2022-09-01T13:43:20;1.80;;;1.70;;
12721;SDS011;6425;50.316;8.114;2022-09-01T13:48:21;3.37;;;3.07;;
12721;SDS011;6425;50.316;8.114;2022-09-01T13:53:23;2.93;;;2.73;;
12721;SDS011;6425;50.316;8.114;2022-09-01T13:58:24;2.77;;;2.33;;
12721;SDS011;6425;50.316;8.114;2022-09-01T14:03:24;2.50;;;2.30;;
12721;SDS011;6425;50.316;8.114;2022-09-01T14:08:26;3.60;;;3.40;;
12721;SDS011;6425;50.316;8.114;2022-09-01T14:13:27;3.90;;;2.53;;
12721;SDS011;6425;50.316;8.114;2022-09-01T14:18:28;2.43;;;2.17;;
12721;SDS011;6425;50.316;8.114;2022-09-01T14:23:30;2.67;;;2.47;;
12721;SDS011;6425;50.316;8.114;2022-09-01T14:28:31;2.10;;;2.00;;
12721;SDS011;6425;50.316;8.114;2022-09-01T14:33:31;3.23;;;1.80;;
12721;SDS011;6425;50.316;8.114;2022-09-01T14:38:33;2.40;;;1.50;;
12721;SDS011;6425;50.316;8.114;2022-09-01T14:43:34;2.00;;;1.90;;
12721;SDS011;6425;50.316;8.114;2022-09-01T14:48:34;5.37;;;2.33;;
12721;SDS011;6425;50.316;8.114;2022-09-01T14:53:36;4.30;;;3.90;;
12721;SDS011;6425;50.316;8.114;2022-09-01T14:58:37;3.43;;;3.10;;
12721;SDS011;6425;50.316;8.114;2022-09-01T15:03:37;2.53;;;2.43;;
12721;SDS011;6425;50.316;8.114;2022-09-01T15:08:39;3.20;;;3.10;;
12721;SDS011;6425;50.316;8.114;2022-09-01T15:13:40;2.93;;;1.97;;
12721;SDS011;6425;50.316;8.114;2022-09-01T15:18:41;2.97;;;2.50;;
12721;SDS011;6425;50.316;8.114;2022-09-01T15:23:43;1.90;;;1.80;;
12721;SDS011;6425;50.316;8.114;2022-09-01T15:28:43;3.30;;;2.00;;
12721;SDS011;6425;50.316;8.114;2022-09-01T15:33:45;2.10;;;2.00;;
12721;SDS011;6425;50.316;8.114;2022-09-01T15:38:47;2.97;;;2.20;;
12721;SDS011;6425;50.316;8.114;2022-09-01T15:43:48;2.93;;;2.73;;
12721;SDS011;6425;50.316;8.114;2022-09-01T15:48:49;13.27;;;2.03;;
12721;SDS011;6425;50.316;8.114;2022-09-01T15:53:52;4.73;;;2.13;;
12721;SDS011;6425;50.316;8.114;2022-09-01T15:58:54;4.90;;;2.47;;
12721;SDS011;6425;50.316;8.114;2022-09-01T16:03:54;2.17;;;2.13;;
12721;SDS011;6425;50.316;8.114;2022-09-01T16:08:57;2.77;;;2.33;;
12721;SDS011;6425;50.316;8.114;2022-09-01T16:13:57;3.23;;;2.70;;
12721;SDS011;6425;50.316;8.114;2022-09-01T16:18:59;2.10;;;1.93;;
12721;SDS011;6425;50.316;8.114;2022-09-01T16:24:06;3.27;;;1.67;;
12721;SDS011;6425;50.316;8.114;2022-09-01T16:29:10;1.50;;;1.10;;
12721;SDS011;6425;50.316;8.114;2022-09-01T16:34:15;3.37;;;2.07;;
12721;SDS011;6425;50.316;8.114;2022-09-01T16:39:20;1.77;;;1.67;;
12721;SDS011;6425;50.316;8.114;2022-09-01T16:44:30;2.90;;;2.80;;
12721;SDS011;6425;50.316;8.114;2022-09-01T16:49:42;2.63;;;2.43;;
12721;SDS011;6425;50.316;8.114;2022-09-01T16:54:56;2.73;;;1.40;;
12721;SDS011;6425;50.316;8.114;2022-09-01T17:00:05;3.57;;;1.40;;
12721;SDS011;6425;50.316;8.114;2022-09-01T17:05:11;3.47;;;3.00;;
12721;SDS011;6425;50.316;8.114;2022-09-01T17:10:27;3.00;;;2.70;;
12721;SDS011;6425;50.316;8.114;2022-09-01T17:15:32;4.40;;;2.43;;
12721;SDS011;6425;50.316;8.114;2022-09-01T17:20:38;2.63;;;2.40;;
12721;SDS011;6425;50.316;8.114;2022-09-01T17:25:44;2.40;;;1.97;;
12721;SDS011;6425;50.316;8.114;2022-09-01T17:30:50;1.20;;;1.10;;
12721;SDS011;6425;50.316;8.114;2022-09-01T17:36:00;2.03;;;0.90;;
12721;SDS011;6425;50.316;8.114;2022-09-01T17:41:12;1.00;;;1.00;;
12721;SDS011;6425;50.316;8.114;2022-09-01T17:46:21;5.03;;;1.40;;
12721;SDS011;6425;50.316;8.114;2022-09-01T17:51:31;4.33;;;1.30;;
12721;SDS011;6425;50.316;8.114;2022-09-01T17:56:42;15.83;;;1.53;;
12721;SDS011;6425;50.316;8.114;2022-09-01T18:01:52;39.53;;;2.57;;
12721;SDS011;6425;50.316;8.114;2022-09-01T18:07:02;50.47;;;3.40;;
12721;SDS011;6425;50.316;8.114;2022-09-01T18:12:11;30.73;;;2.10;;
12721;SDS011;6425;50.316;8.114;2022-09-01T18:17:18;25.00;;;2.10;;
12721;SDS011;6425;50.316;8.114;2022-09-01T18:22:24;50.60;;;2.63;;
12721;SDS011;6425;50.316;8.114;2022-09-01T18:27:28;44.30;;;3.07;;
12721;SDS011;6425;50.316;8.114;2022-09-01T18:32:32;36.17;;;2.70;;
12721;SDS011;6425;50.316;8.114;2022-09-01T18:37:42;36.80;;;2.97;;
12721;SDS011;6425;50.316;8.114;2022-09-01T18:42:56;14.00;;;1.43;;
12721;SDS011;6425;50.316;8.114;2022-09-01T18:48:05;14.13;;;1.27;;
12721;SDS011;6425;50.316;8.114;2022-09-01T18:53:17;8.17;;;1.33;;
12721;SDS011;6425;50.316;8.114;2022-09-01T18:58:33;9.00;;;2.13;;
12721;SDS011;6425;50.316;8.114;2022-09-01T19:03:47;9.10;;;1.50;;
12721;SDS011;6425;50.316;8.114;2022-09-01T19:08:56;3.67;;;1.30;;
12721;SDS011;6425;50.316;8.114;2022-09-01T19:14:05;5.00;;;1.40;;
12721;SDS011;6425;50.316;8.114;2022-09-01T19:19:16;1.30;;;1.30;;
12721;SDS011;6425;50.316;8.114;2022-09-01T19:24:28;3.70;;;1.07;;
12721;SDS011;6425;50.316;8.114;2022-09-01T19:29:42;4.40;;;1.10;;
12721;SDS011;6425;50.316;8.114;2022-09-01T19:34:47;2.50;;;0.93;;
12721;SDS011;6425;50.316;8.114;2022-09-01T19:39:52;2.60;;;1.20;;
12721;SDS011;6425;50.316;8.114;2022-09-01T19:44:55;4.20;;;1.10;;
12721;SDS011;6425;50.316;8.114;2022-09-01T19:50:05;6.43;;;1.33;;
12721;SDS011;6425;50.316;8.114;2022-09-01T19:55:13;3.43;;;1.20;;
12721;SDS011;6425;50.316;8.114;2022-09-01T20:00:21;7.23;;;1.07;;
12721;SDS011;6425;50.316;8.114;2022-09-01T20:05:25;3.70;;;1.20;;
12721;SDS011;6425;50.316;8.114;2022-09-01T20:10:35;2.33;;;1.10;;
12721;SDS011;6425;50.316;8.114;2022-09-01T20:15:44;1.97;;;0.80;;
12721;SDS011;6425;50.316;8.114;2022-09-01T20:20:50;3.97;;;1.60;;
12721;SDS011;6425;50.316;8.114;2022-09-01T20:25:51;2.60;;;0.90;;
12721;SDS011;6425;50.316;8.114;2022-09-01T20:30:59;2.43;;;0.90;;
12721;SDS011;6425;50.316;8.114;2022-09-01T20:36:06;2.10;;;0.70;;
12721;SDS011;6425;50.316;8.114;2022-09-01T20:41:12;1.57;;;0.93;;
12721;SDS011;6425;50.316;8.114;2022-09-01T20:46:20;0.93;;;0.80;;
12721;SDS011;6425;50.316;8.114;2022-09-01T20:51:24;3.60;;;1.07;;
12721;SDS011;6425;50.316;8.114;2022-09-01T20:56:40;1.20;;;0.83;;
12721;SDS011;6425;50.316;8.114;2022-09-01T21:01:49;3.43;;;0.67;;
12721;SDS011;6425;50.316;8.114;2022-09-01T21:06:56;3.33;;;0.97;;
12721;SDS011;6425;50.316;8.114;2022-09-01T21:12:05;5.87;;;1.23;;
12721;SDS011;6425;50.316;8.114;2022-09-01T21:17:11;1.97;;;0.80;;
12721;SDS011;6425;50.316;8.114;2022-09-01T21:22:17;4.10;;;0.87;;
12721;SDS011;6425;50.316;8.114;2022-09-01T21:27:19;0.87;;;0.70;;
12721;SDS011;6425;50.316;8.114;2022-09-01T21:32:23;1.87;;;0.70;;
12721;SDS011;6425;50.316;8.114;2022-09-01T21:37:25;2.43;;;0.70;;
12721;SDS011;6425;50.316;8.114;2022-09-01T21:42:27;3.20;;;0.90;;
12721;SDS011;6425;50.316;8.114;2022-09-01T21:47:33;1.87;;;0.70;;
12721;SDS011;6425;50.316;8.114;2022-09-01T21:52:34;4.20;;;0.70;;
12721;SDS011;6425;50.316;8.114;2022-09-01T21:57:35;2.10;;;0.70;;
12721;SDS011;6425;50.316;8.114;2022-09-01T22:02:37;0.60;;;0.60;;
12721;SDS011;6425;50.316;8.114;2022-09-01T22:07:38;1.07;;;0.70;;
12721;SDS011;6425;50.316;8.114;2022-09-01T22:12:43;1.57;;;0.63;;
12721;SDS011;6425;50.316;8.114;2022-09-01T22:17:46;0.70;;;0.60;;
12721;SDS011;6425;50.316;8.114;2022-09-01T22:22:47;3.40;;;0.80;;
12721;SDS011;6425;50.316;8.114;2022-09-01T22:27:48;1.93;;;0.70;;
12721;SDS011;6425;50.316;8.114;2022-09-01T22:32:50;2.67;;;0.60;;
12721;SDS011;6425;50.316;8.114;2022-09-01T22:37:51;1.77;;;0.70;;
12721;SDS011;6425;50.316;8.114;2022-09-01T22:42:52;1.70;;;0.57;;
12721;SDS011;6425;50.316;8.114;2022-09-01T22:47:54;3.20;;;0.67;;
12721;SDS011;6425;50.316;8.114;2022-09-01T22:52:55;2.10;;;0.70;;
12721;SDS011;6425;50.316;8.114;2022-09-01T22:57:55;4.17;;;0.70;;
12721;SDS011;6425;50.316;8.114;2022-09-01T23:02:58;3.23;;;0.73;;
12721;SDS011;6425;50.316;8.114;2022-09-01T23:07:59;1.53;;;0.80;;
12721;SDS011;6425;50.316;8.114;2022-09-01T23:12:59;2.73;;;0.80;;
12721;SDS011;6425;50.316;8.114;2022-09-01T23:18:01;1.73;;;0.70;;
12721;SDS011;6425;50.316;8.114;2022-09-01T23:23:01;4.53;;;0.93;;
12721;SDS011;6425;50.316;8.114;2022-09-01T23:28:02;3.03;;;0.80;;
12721;SDS011;6425;50.316;8.114;2022-09-01T23:33:04;0.90;;;0.87;;
12721;SDS011;6425;50.316;8.114;2022-09-01T23:38:04;3.00;;;0.80;;
12721;SDS011;6425;50.316;8.114;2022-09-01T23:43:05;2.00;;;0.80;;
12721;SDS011;6425;50.316;8.114;2022-09-01T23:48:07;5.50;;;0.90;;
12721;SDS011;6425;50.316;8.114;2022-09-01T23:53:08;0.90;;;0.90;;
12721;SDS011;6425;50.316;8.114;2022-09-01T23:58:08;3.40;;;1.27;;
